Time;durP1;ratioP1;P1;durP2;ratioP2;P2;SDS_P1;SDS_P2;PMS_P1;PMS_P2;Temp;Humidity;BMP_temperature;BMP_pressure;BME280_temperature;BME280_humidity;BME280_pressure;Samples;Min_cycle;Max_cycle;Signal;HPM_P1;HPM_P2
2021/07/29 00:01:18;;;;;;;;;;;;;;;;;;5070794;28;20307;-65
2021/07/29 00:03:47;;;;;;;;;;;;;;;;;;5070749;28;20131;-65
2021/07/29 00:06:14;;;;;;;;;;;;;;;;;;5061240;28;20001;-65
2021/07/29 00:08:41;;;;;;;;;;;;;;;;;;5069176;28;19934;-64
2021/07/29 00:11:08;;;;;;;;;;;;;;;;;;5064225;28;19925;-64
2021/07/29 00:13:35;;;;;;;;;;;;;;;;;;5069503;28;19929;-65
2021/07/29 00:16:02;;;;;;;;;;;;;;;;;;5066914;28;19933;-65
2021/07/29 00:21:14;;;;;;;;;;;;;;;;;;5062173;28;19924;-65
2021/07/29 00:23:41;;;;;;;;;;;;;;;;;;5066702;28;20358;-65
2021/07/29 00:26:08;;;;;;;;;;;;;;;;;;5062407;28;19925;-65
2021/07/29 00:28:35;;;;;;;;;;;;;;;;;;5062713;28;19931;-64
2021/07/29 00:31:02;;;;;;;;;;;;;;;;;;5060635;28;19934;-65
2021/07/29 00:33:29;;;;;;;;;;;;;;;;;;5067923;28;19940;-65
2021/07/29 00:35:56;;;;;;;;;;;;;;;;;;5066257;28;19932;-64
2021/07/29 00:38:23;;;;;;;;;;;;;;;;;;5062487;28;19925;-64
2021/07/29 00:40:50;;;;;;;;;;;;;;;;;;5055705;28;19932;-64
2021/07/29 00:43:17;;;;;;;;;;;;;;;;;;5060872;28;20403;-64
2021/07/29 00:45:44;;;;;;;;;;;;;;;;;;5067825;28;19924;-65
2021/07/29 00:48:13;;;;;;;;;;;;;;;;;;5064731;28;19935;-64
2021/07/29 00:50:40;;;;;;;;;;;;;;;;;;5065196;28;19972;-65
2021/07/29 00:53:07;;;;;;;;;;;;;;;;;;5062243;28;19924;-65
2021/07/29 00:55:33;;;;;;;;;;;;;;;;;;5063682;28;20230;-64
2021/07/29 00:58:00;;;;;;;;;;;;;;;;;;5067667;28;19935;-64
2021/07/29 01:00:27;;;;;;;;;;;;;;;;;;5065970;28;19924;-65
2021/07/29 01:02:54;;;;;;;;;;;;;;;;;;5066716;28;19924;-64
2021/07/29 01:05:21;;;;;;;;;;;;;;;;;;5067032;28;19998;-65
2021/07/29 01:07:48;;;;;;;;;;;;;;;;;;5066024;28;20049;-65
2021/07/29 01:10:17;;;;;;;;;;;;;;;;;;5066292;28;19932;-65
2021/07/29 01:12:44;;;;;;;;;;;;;;;;;;5066333;28;19937;-65
2021/07/29 01:15:11;;;;;;;;;;;;;;;;;;5057640;28;19928;-65
2021/07/29 01:17:38;;;;;;;;;;;;;;;;;;5060131;28;20381;-65
2021/07/29 01:20:05;;;;;;;;;;;;;;;;;;5070518;28;19928;-65
2021/07/29 01:22:32;;;;;;;;;;;;;;;;;;5069273;28;19924;-64
2021/07/29 01:24:59;;;;;;;;;;;;;;;;;;5069947;28;19924;-65
2021/07/29 01:27:29;;;;;;;;;;;;;;;;;;5069133;28;19925;-64
2021/07/29 01:29:56;;;;;;;;;;;;;;;;;;5065873;28;19925;-65
2021/07/29 01:32:23;;;;;;;;;;;;;;;;;;5066370;28;19924;-65
2021/07/29 01:34:50;;;;;;;;;;;;;;;;;;5066725;28;19933;-64
2021/07/29 01:37:17;;;;;;;;;;;;;;;;;;5072760;28;19924;-65
2021/07/29 01:39:44;;;;;;;;;;;;;;;;;;5070786;28;19924;-64
2021/07/29 01:42:11;;;;;;;;;;;;;;;;;;5066144;28;20078;-65
2021/07/29 01:44:38;;;;;;;;;;;;;;;;;;5070433;28;20387;-64
2021/07/29 01:47:05;;;;;;;;;;;;;;;;;;5065189;28;19947;-65
2021/07/29 01:49:32;;;;;;;;;;;;;;;;;;5063113;28;19924;-65
2021/07/29 01:51:59;;;;;;;;;;;;;;;;;;5071384;28;19928;-64
2021/07/29 01:54:26;;;;;;;;;;;;;;;;;;5064394;28;20372;-65
2021/07/29 01:56:53;;;;;;;;;;;;;;;;;;5070018;28;19924;-64
2021/07/29 01:59:20;;;;;;;;;;;;;;;;;;5068151;28;19944;-65
2021/07/29 02:01:47;;;;;;;;;;;;;;;;;;5067814;28;19925;-65
2021/07/29 02:04:14;;;;;;;;;;;;;;;;;;5066180;28;19925;-65
2021/07/29 02:06:41;;;;;;;;;;;;;;;;;;5067388;28;19934;-64
2021/07/29 02:09:08;;;;;;;;;;;;;;;;;;5063455;28;19925;-65
2021/07/29 02:11:37;;;;;;;;;;;;;;;;;;5066490;28;19925;-65
2021/07/29 02:14:05;;;;;;;;;;;;;;;;;;5064627;28;20384;-65
2021/07/29 02:16:32;;;;;;;;;;;;;;;;;;5065073;28;19929;-64
2021/07/29 02:18:59;;;;;;;;;;;;;;;;;;5064733;28;19935;-64
2021/07/29 02:21:26;;;;;;;;;;;;;;;;;;5064862;28;19928;-64
2021/07/29 02:23:53;;;;;;;;;;;;;;;;;;5065855;28;20418;-64
2021/07/29 02:26:20;;;;;;;;;;;;;;;;;;5072109;28;19947;-63
2021/07/29 02:28:47;;;;;;;;;;;;;;;;;;5072586;28;19932;-64
2021/07/29 02:31:14;;;;;;;;;;;;;;;;;;5062526;28;19940;-64
2021/07/29 02:33:40;;;;;;;;;;;;;;;;;;5067037;28;19931;-65
2021/07/29 02:36:07;;;;;;;;;;;;;;;;;;5069204;28;20369;-64
2021/07/29 02:38:34;;;;;;;;;;;;;;;;;;5065902;28;20328;-64
2021/07/29 02:41:01;;;;;;;;;;;;;;;;;;5061181;28;19936;-64
2021/07/29 02:43:28;;;;;;;;;;;;;;;;;;5068362;28;19928;-64
2021/07/29 02:45:55;;;;;;;;;;;;;;;;;;5068220;28;19931;-64
2021/07/29 02:48:22;;;;;;;;;;;;;;;;;;5057790;28;19924;-64
2021/07/29 02:50:49;;;;;;;;;;;;;;;;;;5062711;28;19932;-64
2021/07/29 02:53:16;;;;;;;;;;;;;;;;;;5060004;28;20308;-64
2021/07/29 02:55:43;;;;;;;;;;;;;;;;;;5069739;28;19925;-64
2021/07/29 02:58:10;;;;;;;;;;;;;;;;;;5063809;28;19924;-64
2021/07/29 03:00:37;;;;;;;;;;;;;;;;;;5070068;28;19931;-64
2021/07/29 03:03:04;;;;;;;;;;;;;;;;;;5070922;28;19929;-64
2021/07/29 03:05:31;;;;;;;;;;;;;;;;;;5066168;28;20385;-63
2021/07/29 03:07:58;;;;;;;;;;;;;;;;;;5069592;28;20403;-64
2021/07/29 03:10:25;;;;;;;;;;;;;;;;;;5068584;28;19932;-63
2021/07/29 03:12:52;;;;;;;;;;;;;;;;;;5068932;28;19928;-64
2021/07/29 03:15:19;;;;;;;;;;;;;;;;;;5067523;28;20015;-63
2021/07/29 03:17:46;;;;;;;;;;;;;;;;;;5069752;28;19930;-64
2021/07/29 03:20:13;;;;;;;;;;;;;;;;;;5069976;28;19924;-64
2021/07/29 03:22:40;;;;;;;;;;;;;;;;;;5071291;28;19932;-65
2021/07/29 03:25:07;;;;;;;;;;;;;;;;;;5066779;28;19932;-64
2021/07/29 03:27:34;;;;;;;;;;;;;;;;;;5069831;28;19935;-64
2021/07/29 03:30:01;;;;;;;;;;;;;;;;;;5067370;28;20324;-65
2021/07/29 03:32:28;;;;;;;;;;;;;;;;;;5065657;28;19931;-64
2021/07/29 03:34:55;;;;;;;;;;;;;;;;;;5064606;28;19932;-64
2021/07/29 03:37:22;;;;;;;;;;;;;;;;;;5066092;28;19929;-64
2021/07/29 03:39:49;;;;;;;;;;;;;;;;;;5077521;22;20396;-65
2021/07/29 03:42:15;;;;;;;;;;;;;;;;;;5059120;28;19925;-65
2021/07/29 03:44:42;;;;;;;;;;;;;;;;;;5054150;28;19932;-65
2021/07/29 03:47:09;;;;;;;;;;;;;;;;;;5051175;28;19933;-66
2021/07/29 03:49:36;;;;;;;;;;;;;;;;;;5059916;28;19924;-65
2021/07/29 03:52:03;;;;;;;;;;;;;;;;;;5061216;28;19924;-65
2021/07/29 03:54:31;;;;;;;;;;;;;;;;;;5053036;28;20406;-65
2021/07/29 03:56:58;;;;;;;;;;;;;;;;;;5060736;28;20462;-65
2021/07/29 03:59:25;;;;;;;;;;;;;;;;;;5052867;28;19935;-65
2021/07/29 04:01:52;;;;;;;;;;;;;;;;;;5059599;28;19940;-65
2021/07/29 04:04:19;;;;;;;;;;;;;;;;;;5055086;28;20013;-65
2021/07/29 04:06:45;;;;;;;;;;;;;;;;;;5054139;28;20389;-64
2021/07/29 04:09:12;;;;;;;;;;;;;;;;;;5058237;28;19924;-65
2021/07/29 04:11:39;;;;;;;;;;;;;;;;;;5059830;28;19929;-65
2021/07/29 04:14:06;;;;;;;;;;;;;;;;;;5056465;28;20277;-65
2021/07/29 04:16:33;;;;;;;;;;;;;;;;;;5053905;28;19925;-65
2021/07/29 04:19:00;;;;;;;;;;;;;;;;;;5062832;28;19935;-65
2021/07/29 04:21:27;;;;;;;;;;;;;;;;;;5060006;28;19924;-65
2021/07/29 04:23:54;;;;;;;;;;;;;;;;;;5054516;28;20039;-65
2021/07/29 04:26:21;;;;;;;;;;;;;;;;;;5060375;28;20303;-65
2021/07/29 04:28:48;;;;;;;;;;;;;;;;;;5060133;28;19924;-66
2021/07/29 04:31:15;;;;;;;;;;;;;;;;;;5052316;28;19924;-65
2021/07/29 04:33:42;;;;;;;;;;;;;;;;;;5063617;28;19933;-65
2021/07/29 04:36:09;;;;;;;;;;;;;;;;;;5058481;28;20341;-65
2021/07/29 04:38:35;;;;;;;;;;;;;;;;;;5054457;28;19925;-66
2021/07/29 04:41:02;;;;;;;;;;;;;;;;;;5067914;28;19931;-66
2021/07/29 04:43:29;;;;;;;;;;;;;;;;;;5057283;28;20304;-66
2021/07/29 04:45:56;;;;;;;;;;;;;;;;;;5061554;28;19931;-68
2021/07/29 04:48:23;;;;;;;;;;;;;;;;;;5055283;28;19944;-66
2021/07/29 04:50:50;;;;;;;;;;;;;;;;;;5053959;28;19932;-65
2021/07/29 04:53:17;;;;;;;;;;;;;;;;;;5055167;28;20347;-65
2021/07/29 04:55:44;;;;;;;;;;;;;;;;;;5050780;28;19932;-65
2021/07/29 04:58:11;;;;;;;;;;;;;;;;;;5051211;28;19925;-65
2021/07/29 05:00:38;;;;;;;;;;;;;;;;;;5054119;28;19924;-65
2021/07/29 05:03:05;;;;;;;;;;;;;;;;;;5054467;28;19925;-65
2021/07/29 05:05:32;;;;;;;;;;;;;;;;;;5058532;28;20369;-66
2021/07/29 05:07:58;;;;;;;;;;;;;;;;;;5046354;28;21059;-65
2021/07/29 05:10:25;;;;;;;;;;;;;;;;;;5055989;28;19924;-65
2021/07/29 05:12:52;;;;;;;;;;;;;;;;;;5061719;28;19933;-66
2021/07/29 05:15:19;;;;;;;;;;;;;;;;;;5059483;28;19929;-66
2021/07/29 05:17:46;;;;;;;;;;;;;;;;;;5056269;28;19925;-66
2021/07/29 05:20:13;;;;;;;;;;;;;;;;;;5052388;28;20376;-66
2021/07/29 05:22:40;;;;;;;;;;;;;;;;;;5053207;28;20621;-65
2021/07/29 05:25:07;;;;;;;;;;;;;;;;;;5066827;28;19931;-65
2021/07/29 05:27:34;;;;;;;;;;;;;;;;;;5060651;28;20209;-65
2021/07/29 05:30:01;;;;;;;;;;;;;;;;;;5054435;28;19939;-65
2021/07/29 05:32:28;;;;;;;;;;;;;;;;;;5051650;28;19932;-66
2021/07/29 05:34:55;;;;;;;;;;;;;;;;;;5058208;28;19932;-66
2021/07/29 05:37:22;;;;;;;;;;;;;;;;;;5058528;28;19925;-66
2021/07/29 05:39:49;;;;;;;;;;;;;;;;;;5059970;28;19929;-66
2021/07/29 05:42:20;;;;;;;;;;;;;;;;;;5045501;28;19926;-66
2021/07/29 05:44:47;;;;;;;;;;;;;;;;;;5054368;28;20428;-66
2021/07/29 05:47:14;;;;;;;;;;;;;;;;;;5050477;28;19924;-65
2021/07/29 05:49:41;;;;;;;;;;;;;;;;;;5050958;28;19924;-66
2021/07/29 05:52:08;;;;;;;;;;;;;;;;;;5053541;28;19942;-66
2021/07/29 05:54:35;;;;;;;;;;;;;;;;;;5052777;28;20300;-65
2021/07/29 05:57:02;;;;;;;;;;;;;;;;;;5054414;28;19932;-65
2021/07/29 05:59:29;;;;;;;;;;;;;;;;;;5056657;28;19951;-65
2021/07/29 06:01:56;;;;;;;;;;;;;;;;;;5056156;28;19925;-65
2021/07/29 06:04:23;;;;;;;;;;;;;;;;;;5056907;28;20272;-65
2021/07/29 06:06:49;;;;;;;;;;;;;;;;;;5058071;28;19929;-65
2021/07/29 06:09:16;;;;;;;;;;;;;;;;;;5058322;28;19925;-65
2021/07/29 06:11:43;;;;;;;;;;;;;;;;;;5054694;28;19940;-66
2021/07/29 06:14:10;;;;;;;;;;;;;;;;;;5054344;28;19944;-65
2021/07/29 06:16:37;;;;;;;;;;;;;;;;;;5056847;28;19925;-66
2021/07/29 06:19:06;;;;;;;;;;;;;;;;;;5060845;28;20284;-65
2021/07/29 06:21:33;;;;;;;;;;;;;;;;;;5057628;28;19933;-65
2021/07/29 06:24:00;;;;;;;;;;;;;;;;;;5057353;28;19925;-66
2021/07/29 06:26:27;;;;;;;;;;;;;;;;;;5056848;28;19925;-66
2021/07/29 06:28:54;;;;;;;;;;;;;;;;;;5059503;28;19931;-66
2021/07/29 06:31:21;;;;;;;;;;;;;;;;;;5056450;28;19983;-65
2021/07/29 06:33:48;;;;;;;;;;;;;;;;;;5057636;28;19925;-65
2021/07/29 06:36:15;;;;;;;;;;;;;;;;;;5060417;28;20274;-65
2021/07/29 06:38:42;;;;;;;;;;;;;;;;;;5050001;28;19925;-63
2021/07/29 06:41:09;;;;;;;;;;;;;;;;;;5053380;28;20153;-63
2021/07/29 06:43:36;;;;;;;;;;;;;;;;;;5045886;28;19931;-63
2021/07/29 06:46:03;;;;;;;;;;;;;;;;;;5046523;28;19933;-65
2021/07/29 06:48:30;;;;;;;;;;;;;;;;;;5040692;28;19939;-64
2021/07/29 06:50:57;;;;;;;;;;;;;;;;;;5041924;28;19925;-64
2021/07/29 06:53:24;;;;;;;;;;;;;;;;;;5041724;28;20395;-64
2021/07/29 06:55:51;;;;;;;;;;;;;;;;;;5042638;28;19929;-64
2021/07/29 06:58:18;;;;;;;;;;;;;;;;;;5042482;28;19931;-63
2021/07/29 07:00:45;;;;;;;;;;;;;;;;;;5046394;28;19925;-64
2021/07/29 07:03:12;;;;;;;;;;;;;;;;;;5051407;28;20308;-64
2021/07/29 07:05:44;;;;;;;;;;;;;;;;;;5045978;28;19931;-65
2021/07/29 07:08:11;;;;;;;;;;;;;;;;;;5042392;28;20581;-65
2021/07/29 07:10:38;;;;;;;;;;;;;;;;;;5047129;28;19925;-65
2021/07/29 07:13:05;;;;;;;;;;;;;;;;;;5048809;28;19925;-66
2021/07/29 07:15:32;;;;;;;;;;;;;;;;;;5049096;28;19935;-67
2021/07/29 07:17:59;;;;;;;;;;;;;;;;;;5048667;28;19936;-67
2021/07/29 07:20:26;;;;;;;;;;;;;;;;;;5046809;28;19925;-66
2021/07/29 07:22:53;;;;;;;;;;;;;;;;;;5048394;28;19925;-66
2021/07/29 07:25:20;;;;;;;;;;;;;;;;;;5044711;28;19932;-67
2021/07/29 07:27:47;;;;;;;;;;;;;;;;;;5051111;28;20398;-66
2021/07/29 07:30:14;;;;;;;;;;;;;;;;;;5047423;28;20303;-67
2021/07/29 07:32:41;;;;;;;;;;;;;;;;;;5047020;28;19925;-68
2021/07/29 07:35:08;;;;;;;;;;;;;;;;;;5048282;28;19924;-67
2021/07/29 07:37:35;;;;;;;;;;;;;;;;;;5044002;28;19931;-67
2021/07/29 07:40:02;;;;;;;;;;;;;;;;;;5050514;28;19979;-67
2021/07/29 07:42:29;;;;;;;;;;;;;;;;;;5047353;28;20368;-68
2021/07/29 07:44:56;;;;;;;;;;;;;;;;;;5046194;28;19933;-66
2021/07/29 07:47:23;;;;;;;;;;;;;;;;;;5049899;28;19925;-65
2021/07/29 07:49:50;;;;;;;;;;;;;;;;;;5045461;28;19961;-66
2021/07/29 07:52:17;;;;;;;;;;;;;;;;;;5050181;28;19931;-67
2021/07/29 07:54:44;;;;;;;;;;;;;;;;;;5044722;28;19929;-65
2021/07/29 07:57:11;;;;;;;;;;;;;;;;;;5047430;28;19956;-67
2021/07/29 07:59:38;;;;;;;;;;;;;;;;;;5044679;28;19932;-67
2021/07/29 08:02:05;;;;;;;;;;;;;;;;;;5044552;28;19929;-67
2021/07/29 08:04:32;;;;;;;;;;;;;;;;;;5045143;28;19924;-67
2021/07/29 08:06:59;;;;;;;;;;;;;;;;;;5035648;28;20419;-66
2021/07/29 08:09:26;;;;;;;;;;;;;;;;;;5042484;28;19928;-66
2021/07/29 08:11:52;;;;;;;;;;;;;;;;;;5039524;28;19940;-68
2021/07/29 08:14:19;;;;;;;;;;;;;;;;;;5043217;28;19924;-67
2021/07/29 08:16:46;;;;;;;;;;;;;;;;;;5041964;28;19925;-67
2021/07/29 08:19:13;;;;;;;;;;;;;;;;;;5043544;28;19928;-67
2021/07/29 08:21:40;;;;;;;;;;;;;;;;;;5048407;28;19932;-67
2021/07/29 08:24:07;;;;;;;;;;;;;;;;;;5036098;28;19932;-66
2021/07/29 08:26:34;;;;;;;;;;;;;;;;;;5046799;28;20024;-66
2021/07/29 08:29:01;;;;;;;;;;;;;;;;;;5044170;28;19939;-65
2021/07/29 08:31:28;;;;;;;;;;;;;;;;;;5039455;28;20278;-66
2021/07/29 08:33:55;;;;;;;;;;;;;;;;;;5047849;28;19925;-67
2021/07/29 08:36:22;;;;;;;;;;;;;;;;;;5044363;28;20419;-67
2021/07/29 08:38:49;;;;;;;;;;;;;;;;;;5024642;28;19940;-67
2021/07/29 08:41:16;;;;;;;;;;;;;;;;;;5017465;28;20034;-66
2021/07/29 08:43:43;;;;;;;;;;;;;;;;;;5022176;28;20030;-66
2021/07/29 08:46:13;;;;;;;;;;;;;;;;;;5020117;28;19972;-65
2021/07/29 08:48:40;;;;;;;;;;;;;;;;;;5021008;28;20983;-70
2021/07/29 08:51:07;;;;;;;;;;;;;;;;;;5016890;28;19940;-66
2021/07/29 08:53:34;;;;;;;;;;;;;;;;;;5024711;28;19975;-68
2021/07/29 08:56:01;;;;;;;;;;;;;;;;;;5018952;28;19931;-66
2021/07/29 08:58:28;;;;;;;;;;;;;;;;;;5026284;28;19935;-68
2021/07/29 09:00:55;;;;;;;;;;;;;;;;;;5021868;28;19935;-66
2021/07/29 09:03:25;;;;;;;;;;;;;;;;;;5027558;28;19925;-67
2021/07/29 09:05:52;;;;;;;;;;;;;;;;;;5021710;28;19925;-68
2021/07/29 09:08:18;;;;;;;;;;;;;;;;;;5027118;28;19931;-67
2021/07/29 09:10:46;;;;;;;;;;;;;;;;;;5021258;28;19925;-67
2021/07/29 09:13:15;;;;;;;;;;;;;;;;;;5026673;28;19972;-66
2021/07/29 09:15:42;;;;;;;;;;;;;;;;;;5029223;28;19929;-66
2021/07/29 09:18:09;;;;;;;;;;;;;;;;;;5028772;28;19925;-68
2021/07/29 09:20:36;;;;;;;;;;;;;;;;;;5026476;28;19929;-65
2021/07/29 09:23:03;;;;;;;;;;;;;;;;;;5023418;28;19929;-66
2021/07/29 09:25:30;;;;;;;;;;;;;;;;;;5014608;28;19979;-67
2021/07/29 09:27:58;;;;;;;;;;;;;;;;;;5027648;28;20949;-66
2021/07/29 09:30:25;;;;;;;;;;;;;;;;;;5026825;28;19929;-69
2021/07/29 09:32:52;;;;;;;;;;;;;;;;;;5016876;28;19925;-66
2021/07/29 09:35:19;;;;;;;;;;;;;;;;;;5022139;28;19925;-67
2021/07/29 09:37:46;;;;;;;;;;;;;;;;;;5025304;28;20389;-68
2021/07/29 09:40:13;;;;;;;;;;;;;;;;;;5017210;28;19925;-68
2021/07/29 09:42:40;;;;;;;;;;;;;;;;;;5028005;28;20063;-66
2021/07/29 09:45:07;;;;;;;;;;;;;;;;;;5022869;28;19929;-67
2021/07/29 09:47:35;;;;;;;;;;;;;;;;;;5020525;28;20294;-66
2021/07/29 09:50:02;;;;;;;;;;;;;;;;;;5019740;28;19977;-68
2021/07/29 09:52:29;;;;;;;;;;;;;;;;;;5017539;28;19945;-69
2021/07/29 09:54:57;;;;;;;;;;;;;;;;;;5027559;28;19929;-66
2021/07/29 09:57:24;;;;;;;;;;;;;;;;;;5023839;28;20356;-66
2021/07/29 09:59:51;;;;;;;;;;;;;;;;;;5022837;28;19987;-65
2021/07/29 10:02:17;;;;;;;;;;;;;;;;;;5023853;28;19932;-68
2021/07/29 10:04:44;;;;;;;;;;;;;;;;;;5026210;28;20285;-67
2021/07/29 10:07:11;;;;;;;;;;;;;;;;;;5028463;28;19968;-65
2021/07/29 10:09:39;;;;;;;;;;;;;;;;;;5027139;28;19995;-66
2021/07/29 10:12:06;;;;;;;;;;;;;;;;;;5026086;28;19929;-66
2021/07/29 10:14:33;;;;;;;;;;;;;;;;;;5025235;28;20079;-66
2021/07/29 10:17:00;;;;;;;;;;;;;;;;;;5022538;28;19925;-65
2021/07/29 10:19:27;;;;;;;;;;;;;;;;;;5024903;28;19983;-66
2021/07/29 10:21:54;;;;;;;;;;;;;;;;;;5024581;28;19932;-67
2021/07/29 10:24:21;;;;;;;;;;;;;;;;;;5026798;28;19929;-68
2021/07/29 10:26:48;;;;;;;;;;;;;;;;;;5021324;28;19935;-66
2021/07/29 10:29:15;;;;;;;;;;;;;;;;;;5023575;28;19933;-65
2021/07/29 10:31:42;;;;;;;;;;;;;;;;;;5025220;28;19980;-67
2021/07/29 10:34:09;;;;;;;;;;;;;;;;;;5012173;28;19930;-65
2021/07/29 10:36:36;;;;;;;;;;;;;;;;;;5023779;28;20325;-68
2021/07/29 10:39:03;;;;;;;;;;;;;;;;;;5022375;28;19931;-64
2021/07/29 10:41:30;;;;;;;;;;;;;;;;;;5023415;28;19925;-66
2021/07/29 10:43:57;;;;;;;;;;;;;;;;;;5025869;28;19925;-64
2021/07/29 10:46:24;;;;;;;;;;;;;;;;;;5025562;28;20156;-64
2021/07/29 10:48:59;;;;;;;;;;;;;;;;;;5027829;28;19929;-66
2021/07/29 10:51:26;;;;;;;;;;;;;;;;;;5024921;28;20169;-66
2021/07/29 10:53:53;;;;;;;;;;;;;;;;;;5028384;28;19929;-65
2021/07/29 10:56:20;;;;;;;;;;;;;;;;;;5027275;28;19925;-66
2021/07/29 10:58:47;;;;;;;;;;;;;;;;;;5023658;28;20378;-66
2021/07/29 11:01:15;;;;;;;;;;;;;;;;;;5021803;28;19925;-65
2021/07/29 11:03:46;;;;;;;;;;;;;;;;;;5022269;28;19925;-68
2021/07/29 11:06:14;;;;;;;;;;;;;;;;;;5023830;28;19979;-67
2021/07/29 11:08:41;;;;;;;;;;;;;;;;;;5026324;28;19933;-66
2021/07/29 11:11:08;;;;;;;;;;;;;;;;;;5028857;28;20004;-67
2021/07/29 11:13:35;;;;;;;;;;;;;;;;;;5022764;28;19926;-66
2021/07/29 11:16:02;;;;;;;;;;;;;;;;;;5020271;28;19937;-67
2021/07/29 11:18:30;;;;;;;;;;;;;;;;;;5027156;28;19948;-67
2021/07/29 11:20:57;;;;;;;;;;;;;;;;;;5026861;28;19995;-67
2021/07/29 11:23:24;;;;;;;;;;;;;;;;;;5024336;28;19937;-66
2021/07/29 11:25:51;;;;;;;;;;;;;;;;;;5023060;28;19940;-67
2021/07/29 11:28:18;;;;;;;;;;;;;;;;;;5028273;28;19925;-66
2021/07/29 11:30:45;;;;;;;;;;;;;;;;;;5023982;28;20393;-65
2021/07/29 11:33:12;;;;;;;;;;;;;;;;;;5026455;28;20168;-66
2021/07/29 11:35:39;;;;;;;;;;;;;;;;;;5025920;28;19932;-66
2021/07/29 11:38:06;;;;;;;;;;;;;;;;;;5024207;28;19926;-66
2021/07/29 11:40:33;;;;;;;;;;;;;;;;;;5015833;28;20088;-66
2021/07/29 11:42:59;;;;;;;;;;;;;;;;;;5021051;28;19925;-67
2021/07/29 11:45:27;;;;;;;;;;;;;;;;;;5024935;28;19940;-66
2021/07/29 11:47:54;;;;;;;;;;;;;;;;;;5016599;28;19933;-67
2021/07/29 11:50:21;;;;;;;;;;;;;;;;;;5022158;28;20563;-67
2021/07/29 11:52:48;;;;;;;;;;;;;;;;;;5021209;28;19925;-66
2021/07/29 11:55:16;;;;;;;;;;;;;;;;;;5026948;28;20004;-67
2021/07/29 11:57:42;;;;;;;;;;;;;;;;;;5025108;28;20255;-67
2021/07/29 12:00:09;;;;;;;;;;;;;;;;;;5024519;28;19925;-67
2021/07/29 12:02:36;;;;;;;;;;;;;;;;;;5023074;28;19925;-67
2021/07/29 12:05:03;;;;;;;;;;;;;;;;;;5026151;28;19925;-67
2021/07/29 12:07:30;;;;;;;;;;;;;;;;;;5022507;28;20000;-67
2021/07/29 12:09:57;;;;;;;;;;;;;;;;;;5020638;28;20354;-66
2021/07/29 12:12:24;;;;;;;;;;;;;;;;;;5024486;28;20381;-66
2021/07/29 12:14:51;;;;;;;;;;;;;;;;;;5023485;28;20182;-66
2021/07/29 12:17:18;;;;;;;;;;;;;;;;;;5022622;28;19925;-66
2021/07/29 12:19:45;;;;;;;;;;;;;;;;;;5023176;28;19925;-67
2021/07/29 12:22:12;;;;;;;;;;;;;;;;;;5022551;28;19930;-66
2021/07/29 12:24:39;;;;;;;;;;;;;;;;;;5020918;28;19931;-66
2021/07/29 12:27:06;;;;;;;;;;;;;;;;;;5025978;28;19925;-66
2021/07/29 12:29:33;;;;;;;;;;;;;;;;;;5021066;28;19926;-66
2021/07/29 12:32:00;;;;;;;;;;;;;;;;;;5020147;28;19932;-66
2021/07/29 12:34:27;;;;;;;;;;;;;;;;;;5022026;28;19932;-66
2021/07/29 12:36:54;;;;;;;;;;;;;;;;;;5023080;28;19925;-67
2021/07/29 12:39:21;;;;;;;;;;;;;;;;;;5016329;28;19964;-67
2021/07/29 12:41:48;;;;;;;;;;;;;;;;;;5023742;28;19925;-67
2021/07/29 12:44:15;;;;;;;;;;;;;;;;;;5022280;28;20364;-67
2021/07/29 12:46:42;;;;;;;;;;;;;;;;;;5018655;28;20428;-66
2021/07/29 12:49:09;;;;;;;;;;;;;;;;;;5022188;28;19925;-65
2021/07/29 12:51:36;;;;;;;;;;;;;;;;;;5022416;28;20027;-65
2021/07/29 12:54:03;;;;;;;;;;;;;;;;;;5022194;28;19925;-67
2021/07/29 12:56:30;;;;;;;;;;;;;;;;;;5022769;28;20366;-65
2021/07/29 12:58:57;;;;;;;;;;;;;;;;;;5019892;28;19973;-66
2021/07/29 13:01:24;;;;;;;;;;;;;;;;;;5022173;28;19925;-66
2021/07/29 13:03:51;;;;;;;;;;;;;;;;;;5015721;28;19972;-66
2021/07/29 13:06:18;;;;;;;;;;;;;;;;;;5022971;28;20296;-67
2021/07/29 13:08:45;;;;;;;;;;;;;;;;;;5022954;28;20420;-66
2021/07/29 13:11:12;;;;;;;;;;;;;;;;;;5022109;28;19986;-66
2021/07/29 13:13:39;;;;;;;;;;;;;;;;;;5027127;28;20359;-65
2021/07/29 13:16:06;;;;;;;;;;;;;;;;;;5025152;28;20046;-65
2021/07/29 13:18:33;;;;;;;;;;;;;;;;;;5024728;28;19925;-66
2021/07/29 13:21:00;;;;;;;;;;;;;;;;;;5025922;28;20032;-68
2021/07/29 13:23:27;;;;;;;;;;;;;;;;;;5023487;28;19929;-66
2021/07/29 13:25:54;;;;;;;;;;;;;;;;;;5021689;28;19925;-67
2021/07/29 13:28:21;;;;;;;;;;;;;;;;;;5024329;28;19925;-67
2021/07/29 13:30:48;;;;;;;;;;;;;;;;;;5022498;28;19932;-68
2021/07/29 13:33:15;;;;;;;;;;;;;;;;;;5019846;28;19932;-67
2021/07/29 13:35:42;;;;;;;;;;;;;;;;;;5026769;28;19940;-67
2021/07/29 13:38:09;;;;;;;;;;;;;;;;;;5022970;28;19925;-66
2021/07/29 13:40:36;;;;;;;;;;;;;;;;;;5022321;28;19929;-68
2021/07/29 13:43:03;;;;;;;;;;;;;;;;;;5020848;28;19933;-66
2021/07/29 13:45:30;;;;;;;;;;;;;;;;;;5025189;28;19933;-66
2021/07/29 13:47:58;;;;;;;;;;;;;;;;;;5017972;28;19933;-65
2021/07/29 13:50:25;;;;;;;;;;;;;;;;;;5020714;28;19933;-66
2021/07/29 13:52:53;;;;;;;;;;;;;;;;;;5021978;28;19936;-66
2021/07/29 13:55:20;;;;;;;;;;;;;;;;;;5024609;28;19951;-67
2021/07/29 13:57:48;;;;;;;;;;;;;;;;;;5021092;28;20320;-66
2021/07/29 14:00:15;;;;;;;;;;;;;;;;;;5019796;28;20347;-66
2021/07/29 14:02:41;;;;;;;;;;;;;;;;;;5025873;28;20020;-65
2021/07/29 14:05:08;;;;;;;;;;;;;;;;;;5022094;28;19925;-65
2021/07/29 14:07:35;;;;;;;;;;;;;;;;;;5021608;28;19926;-66
2021/07/29 14:10:02;;;;;;;;;;;;;;;;;;5022906;28;19933;-66
2021/07/29 14:12:29;;;;;;;;;;;;;;;;;;5020112;28;19932;-67
2021/07/29 14:14:56;;;;;;;;;;;;;;;;;;5021342;28;20389;-66
2021/07/29 14:17:28;;;;;;;;;;;;;;;;;;5022729;28;19925;-66
2021/07/29 14:20:07;;;;;;;;;;;;;;;;;;5021036;28;19925;-66
2021/07/29 14:25:18;;;;;;;;;;;;;;;;;;5019244;28;19924;-66
2021/07/29 14:27:45;;;;;;;;;;;;;;;;;;5022016;28;19926;-67
2021/07/29 14:30:12;;;;;;;;;;;;;;;;;;5026032;28;20023;-67
2021/07/29 14:32:41;;;;;;;;;;;;;;;;;;5028630;28;19936;-67
2021/07/29 14:35:08;;;;;;;;;;;;;;;;;;5022412;28;19955;-67
2021/07/29 14:37:35;;;;;;;;;;;;;;;;;;5021870;28;19925;-67
2021/07/29 14:40:02;;;;;;;;;;;;;;;;;;5019472;28;20217;-67
2021/07/29 14:42:28;;;;;;;;;;;;;;;;;;5024721;28;19925;-68
2021/07/29 14:44:59;;;;;;;;;;;;;;;;;;5021756;28;19929;-67
2021/07/29 14:50:11;;;;;;;;;;;;;;;;;;5027378;28;20404;-65
2021/07/29 14:52:38;;;;;;;;;;;;;;;;;;5032902;28;19925;-65
2021/07/29 14:55:08;;;;;;;;;;;;;;;;;;5031748;28;19925;-66
2021/07/29 16:09:12;;;;;;;;;;;;;;;;;;5025211;28;20293;-66
2021/07/29 16:11:40;;;;;;;;;;;;;;;;;;5024737;28;19933;-65
2021/07/29 16:14:09;;;;;;;;;;;;;;;;;;5021487;28;19925;-65
2021/07/29 16:16:36;;;;;;;;;;;;;;;;;;5029631;28;19933;-65
2021/07/29 16:19:03;;;;;;;;;;;;;;;;;;5032385;28;19929;-65
2021/07/29 16:21:30;;;;;;;;;;;;;;;;;;5029484;28;19925;-65
2021/07/29 16:23:57;;;;;;;;;;;;;;;;;;5035361;28;19924;-65
2021/07/29 16:26:23;;;;;;;;;;;;;;;;;;5028996;28;19925;-65
2021/07/29 16:28:50;;;;;;;;;;;;;;;;;;5032011;28;19924;-65
2021/07/29 16:31:17;;;;;;;;;;;;;;;;;;5031363;28;19924;-66
2021/07/29 16:33:44;;;;;;;;;;;;;;;;;;5031095;28;19932;-66
2021/07/29 16:36:11;;;;;;;;;;;;;;;;;;5030248;28;20298;-66
2021/07/29 16:38:38;;;;;;;;;;;;;;;;;;5028230;28;20309;-65
2021/07/29 16:41:05;;;;;;;;;;;;;;;;;;5029380;28;19931;-66
2021/07/29 16:43:32;;;;;;;;;;;;;;;;;;5037200;28;20451;-66
2021/07/29 16:45:59;;;;;;;;;;;;;;;;;;5026768;28;20022;-66
2021/07/29 16:48:26;;;;;;;;;;;;;;;;;;5027431;28;19936;-65
2021/07/29 16:50:53;;;;;;;;;;;;;;;;;;5028308;28;20288;-65
2021/07/29 16:53:20;;;;;;;;;;;;;;;;;;5025911;28;19933;-65
2021/07/29 16:55:47;;;;;;;;;;;;;;;;;;5027105;28;19932;-65
2021/07/29 16:58:14;;;;;;;;;;;;;;;;;;5027040;28;19932;-65
2021/07/29 17:00:41;;;;;;;;;;;;;;;;;;5025155;28;19925;-66
2021/07/29 17:03:08;;;;;;;;;;;;;;;;;;5027907;28;20296;-65
2021/07/29 17:05:35;;;;;;;;;;;;;;;;;;5030987;28;19925;-65
2021/07/29 17:08:02;;;;;;;;;;;;;;;;;;5029481;28;19930;-65
2021/07/29 17:10:29;;;;;;;;;;;;;;;;;;5026268;28;19926;-65
2021/07/29 17:12:56;;;;;;;;;;;;;;;;;;5029322;28;20138;-65
2021/07/29 17:15:23;;;;;;;;;;;;;;;;;;5031586;28;20325;-64
2021/07/29 17:17:50;;;;;;;;;;;;;;;;;;5028264;28;20015;-65
2021/07/29 17:20:17;;;;;;;;;;;;;;;;;;5031708;28;19975;-65
2021/07/29 17:22:44;;;;;;;;;;;;;;;;;;5029031;28;20228;-66
2021/07/29 17:25:11;;;;;;;;;;;;;;;;;;5019942;28;19925;-65
2021/07/29 17:27:38;;;;;;;;;;;;;;;;;;5023923;28;19925;-66
2021/07/29 17:30:05;;;;;;;;;;;;;;;;;;5021214;28;19931;-65
2021/07/29 17:32:32;;;;;;;;;;;;;;;;;;5024870;28;20009;-65
2021/07/29 17:34:59;;;;;;;;;;;;;;;;;;5022039;28;19925;-66
2021/07/29 17:37:26;;;;;;;;;;;;;;;;;;5026502;28;19932;-66
2021/07/29 17:39:53;;;;;;;;;;;;;;;;;;5021440;28;19947;-66
2021/07/29 17:42:20;;;;;;;;;;;;;;;;;;5030045;28;19931;-65
2021/07/29 17:44:47;;;;;;;;;;;;;;;;;;5030835;28;19925;-65
2021/07/29 17:47:14;;;;;;;;;;;;;;;;;;5024861;28;19925;-66
2021/07/29 17:49:41;;;;;;;;;;;;;;;;;;5031844;28;19925;-66
2021/07/29 17:52:08;;;;;;;;;;;;;;;;;;5032556;28;19924;-66
2021/07/29 17:54:35;;;;;;;;;;;;;;;;;;5028074;28;19998;-65
2021/07/29 17:57:02;;;;;;;;;;;;;;;;;;5020390;28;19932;-66
2021/07/29 17:59:29;;;;;;;;;;;;;;;;;;5025339;28;20046;-66
2021/07/29 18:01:56;;;;;;;;;;;;;;;;;;5030861;28;19943;-65
2021/07/29 18:04:24;;;;;;;;;;;;;;;;;;5031822;28;20263;-66